sensor_id;sensor_type;location;lat;lon;timestamp;pressure;altitude;pressure_sealevel;temperature;humidity
72428;BME280;60419;48.880;18.036;2024-01-25T00:00:36;99381.09;;;7.12;62.28
72428;BME280;60419;48.880;18.036;2024-01-25T00:03:21;99379.19;;;7.18;62.29
72428;BME280;60419;48.880;18.036;2024-01-25T00:06:07;99364.69;;;7.24;61.89
72428;BME280;60419;48.880;18.036;2024-01-25T00:08:55;99388.28;;;7.37;60.05
72428;BME280;60419;48.880;18.036;2024-01-25T00:11:40;99364.34;;;7.46;61.33
72428;BME280;60419;48.880;18.036;2024-01-25T00:14:26;99366.25;;;7.40;60.14
72428;BME280;60419;48.880;18.036;2024-01-25T00:17:11;99372.31;;;7.61;60.53
72428;BME280;60419;48.880;18.036;2024-01-25T00:19:56;99367.50;;;7.58;59.89
72428;BME280;60419;48.880;18.036;2024-01-25T00:22:42;99378.03;;;7.44;61.12
72428;BME280;60419;48.880;18.036;2024-01-25T00:25:27;99366.53;;;7.28;60.97
72428;BME280;60419;48.880;18.036;2024-01-25T00:28:12;99342.63;;;7.27;59.88
72428;BME280;60419;48.880;18.036;2024-01-25T00:30:58;99353.84;;;7.44;59.88
72428;BME280;60419;48.880;18.036;2024-01-25T00:33:43;99366.78;;;7.42;59.56
72428;BME280;60419;48.880;18.036;2024-01-25T00:36:29;99365.69;;;7.43;59.75
72428;BME280;60419;48.880;18.036;2024-01-25T00:39:14;99360.03;;;7.50;60.18
72428;BME280;60419;48.880;18.036;2024-01-25T00:42:04;99356.53;;;7.44;60.18
72428;BME280;60419;48.880;18.036;2024-01-25T00:44:51;99339.63;;;7.33;59.75
72428;BME280;60419;48.880;18.036;2024-01-25T00:47:37;99357.38;;;7.40;60.01
72428;BME280;60419;48.880;18.036;2024-01-25T00:50:22;99351.72;;;7.36;60.19
72428;BME280;60419;48.880;18.036;2024-01-25T00:53:09;99346.81;;;7.53;59.34
72428;BME280;60419;48.880;18.036;2024-01-25T00:55:55;99343.44;;;7.77;59.12
72428;BME280;60419;48.880;18.036;2024-01-25T00:58:41;99358.69;;;7.92;58.95
72428;BME280;60419;48.880;18.036;2024-01-25T01:01:27;99354.63;;;7.94;58.80
72428;BME280;60419;48.880;18.036;2024-01-25T01:04:14;99352.34;;;7.72;58.86
72428;BME280;60419;48.880;18.036;2024-01-25T01:06:59;99354.22;;;7.72;58.09
72428;BME280;60419;48.880;18.036;2024-01-25T01:09:45;99352.09;;;7.69;58.80
72428;BME280;60419;48.880;18.036;2024-01-25T01:12:30;99362.13;;;7.58;59.08
72428;BME280;60419;48.880;18.036;2024-01-25T01:15:15;99344.63;;;7.61;58.65
72428;BME280;60419;48.880;18.036;2024-01-25T01:18:01;99353.72;;;7.65;58.54
72428;BME280;60419;48.880;18.036;2024-01-25T01:20:47;99334.31;;;7.73;57.83
72428;BME280;60419;48.880;18.036;2024-01-25T01:23:32;99280.66;;;7.58;57.50
72428;BME280;60419;48.880;18.036;2024-01-25T01:26:18;99345.69;;;7.60;58.05
72428;BME280;60419;48.880;18.036;2024-01-25T01:29:03;99349.44;;;7.64;58.30
72428;BME280;60419;48.880;18.036;2024-01-25T01:31:49;99353.16;;;7.73;58.86
72428;BME280;60419;48.880;18.036;2024-01-25T01:34:34;99340.59;;;7.63;59.37
72428;BME280;60419;48.880;18.036;2024-01-25T01:37:20;99333.16;;;7.45;59.83
72428;BME280;60419;48.880;18.036;2024-01-25T01:40:05;99332.91;;;7.36;59.36
72428;BME280;60419;48.880;18.036;2024-01-25T01:42:51;99326.91;;;7.54;59.59
72428;BME280;60419;48.880;18.036;2024-01-25T01:45:37;99334.19;;;7.54;59.34
72428;BME280;60419;48.880;18.036;2024-01-25T01:48:22;99343.34;;;7.53;58.47
72428;BME280;60419;48.880;18.036;2024-01-25T01:51:08;99330.16;;;7.51;58.13
72428;BME280;60419;48.880;18.036;2024-01-25T01:53:54;99332.31;;;7.49;58.44
72428;BME280;60419;48.880;18.036;2024-01-25T01:56:40;99324.38;;;7.73;57.64
72428;BME280;60419;48.880;18.036;2024-01-25T01:59:26;99322.59;;;7.59;58.50
72428;BME280;60419;48.880;18.036;2024-01-25T02:02:11;99334.22;;;7.49;57.40
72428;BME280;60419;48.880;18.036;2024-01-25T02:04:57;99327.91;;;7.69;56.88
72428;BME280;60419;48.880;18.036;2024-01-25T02:07:42;99327.34;;;7.72;57.17
72428;BME280;60419;48.880;18.036;2024-01-25T02:10:28;99325.19;;;8.08;56.05
72428;BME280;60419;48.880;18.036;2024-01-25T02:13:13;99332.03;;;7.95;55.76
72428;BME280;60419;48.880;18.036;2024-01-25T02:15:59;99321.25;;;7.61;56.65
72428;BME280;60419;48.880;18.036;2024-01-25T02:18:46;99314.50;;;7.64;55.96
72428;BME280;60419;48.880;18.036;2024-01-25T02:21:34;99317.41;;;7.67;56.75
72428;BME280;60419;48.880;18.036;2024-01-25T02:24:19;99307.72;;;7.71;56.60
72428;BME280;60419;48.880;18.036;2024-01-25T02:27:04;99327.44;;;7.57;57.33
72428;BME280;60419;48.880;18.036;2024-01-25T02:29:50;99302.75;;;7.89;56.32
72428;BME280;60419;48.880;18.036;2024-01-25T02:32:35;99302.06;;;7.73;56.60
72428;BME280;60419;48.880;18.036;2024-01-25T02:35:21;99308.84;;;7.60;56.01
72428;BME280;60419;48.880;18.036;2024-01-25T02:38:07;99321.72;;;7.68;56.19
72428;BME280;60419;48.880;18.036;2024-01-25T02:40:52;99307.88;;;7.46;57.24
72428;BME280;60419;48.880;18.036;2024-01-25T02:43:40;99293.44;;;7.76;56.81
72428;BME280;60419;48.880;18.036;2024-01-25T02:46:26;99317.31;;;7.38;58.31
72428;BME280;60419;48.880;18.036;2024-01-25T02:49:11;99312.19;;;7.42;57.19
72428;BME280;60419;48.880;18.036;2024-01-25T02:51:57;99308.19;;;7.34;58.32
72428;BME280;60419;48.880;18.036;2024-01-25T02:54:42;99314.97;;;7.26;57.62
72428;BME280;60419;48.880;18.036;2024-01-25T02:57:28;99310.59;;;7.41;56.89
72428;BME280;60419;48.880;18.036;2024-01-25T03:00:16;99286.94;;;7.38;56.47
72428;BME280;60419;48.880;18.036;2024-01-25T03:03:01;99296.66;;;7.73;56.40
72428;BME280;60419;48.880;18.036;2024-01-25T03:05:47;99239.03;;;7.05;56.39
72428;BME280;60419;48.880;18.036;2024-01-25T03:08:32;99314.31;;;7.50;56.47
72428;BME280;60419;48.880;18.036;2024-01-25T03:11:17;99303.38;;;7.31;56.47
72428;BME280;60419;48.880;18.036;2024-01-25T03:14:03;99287.81;;;7.72;55.68
72428;BME280;60419;48.880;18.036;2024-01-25T03:16:48;99292.81;;;7.50;55.61
72428;BME280;60419;48.880;18.036;2024-01-25T03:19:34;99311.63;;;7.50;55.40
72428;BME280;60419;48.880;18.036;2024-01-25T03:22:19;99299.00;;;7.50;55.58
72428;BME280;60419;48.880;18.036;2024-01-25T03:25:04;99306.16;;;7.60;53.74
72428;BME280;60419;48.880;18.036;2024-01-25T03:27:50;99322.22;;;7.70;55.00
72428;BME280;60419;48.880;18.036;2024-01-25T03:30:35;99323.31;;;7.69;54.82
72428;BME280;60419;48.880;18.036;2024-01-25T03:33:20;99299.72;;;7.61;54.46
72428;BME280;60419;48.880;18.036;2024-01-25T03:36:06;99313.38;;;7.70;54.59
72428;BME280;60419;48.880;18.036;2024-01-25T03:38:51;99319.91;;;7.59;54.47
72428;BME280;60419;48.880;18.036;2024-01-25T03:41:37;99306.78;;;7.47;54.88
72428;BME280;60419;48.880;18.036;2024-01-25T03:44:22;99298.38;;;7.64;54.22
72428;BME280;60419;48.880;18.036;2024-01-25T03:47:08;99306.56;;;7.43;54.98
72428;BME280;60419;48.880;18.036;2024-01-25T03:49:53;99305.38;;;7.60;54.59
72428;BME280;60419;48.880;18.036;2024-01-25T03:52:39;99294.31;;;7.66;54.08
72428;BME280;60419;48.880;18.036;2024-01-25T03:55:24;99308.38;;;7.53;55.19
72428;BME280;60419;48.880;18.036;2024-01-25T03:58:10;99300.13;;;7.34;55.00
72428;BME280;60419;48.880;18.036;2024-01-25T04:00:55;99307.09;;;7.85;53.97
72428;BME280;60419;48.880;18.036;2024-01-25T04:03:41;99293.16;;;7.77;53.93
72428;BME280;60419;48.880;18.036;2024-01-25T04:06:26;99302.53;;;7.80;53.56
72428;BME280;60419;48.880;18.036;2024-01-25T04:09:12;99307.41;;;7.78;53.27
72428;BME280;60419;48.880;18.036;2024-01-25T04:11:57;99311.50;;;7.65;53.41
72428;BME280;60419;48.880;18.036;2024-01-25T04:14:43;99311.03;;;7.58;53.53
72428;BME280;60419;48.880;18.036;2024-01-25T04:17:28;99300.28;;;7.58;53.68
72428;BME280;60419;48.880;18.036;2024-01-25T04:20:15;99301.91;;;7.54;54.07
72428;BME280;60419;48.880;18.036;2024-01-25T04:23:00;99305.53;;;7.79;52.54
72428;BME280;60419;48.880;18.036;2024-01-25T04:25:45;99307.72;;;7.71;52.41
72428;BME280;60419;48.880;18.036;2024-01-25T04:28:31;99302.00;;;7.78;52.40
72428;BME280;60419;48.880;18.036;2024-01-25T04:31:16;99305.59;;;7.68;52.28
72428;BME280;60419;48.880;18.036;2024-01-25T04:34:02;99307.97;;;7.75;52.62
72428;BME280;60419;48.880;18.036;2024-01-25T04:36:47;99293.88;;;7.49;52.85
72428;BME280;60419;48.880;18.036;2024-01-25T04:39:32;99323.50;;;7.33;53.63
72428;BME280;60419;48.880;18.036;2024-01-25T04:42:18;99320.94;;;7.63;53.23
72428;BME280;60419;48.880;18.036;2024-01-25T04:45:03;99319.28;;;7.72;53.13
72428;BME280;60419;48.880;18.036;2024-01-25T04:47:50;99311.94;;;7.43;53.75
72428;BME280;60419;48.880;18.036;2024-01-25T04:50:36;99310.88;;;7.39;53.68
72428;BME280;60419;48.880;18.036;2024-01-25T04:53:21;99313.91;;;7.17;54.13
72428;BME280;60419;48.880;18.036;2024-01-25T04:56:06;99325.56;;;7.52;54.03
72428;BME280;60419;48.880;18.036;2024-01-25T04:58:52;99301.44;;;7.42;53.92
72428;BME280;60419;48.880;18.036;2024-01-25T05:01:37;99310.34;;;7.37;53.33
72428;BME280;60419;48.880;18.036;2024-01-25T05:04:23;99320.00;;;7.38;53.56
72428;BME280;60419;48.880;18.036;2024-01-25T05:07:08;99298.72;;;7.47;53.59
72428;BME280;60419;48.880;18.036;2024-01-25T05:09:53;99329.97;;;7.32;53.82
72428;BME280;60419;48.880;18.036;2024-01-25T05:12:39;99318.06;;;7.49;53.88
72428;BME280;60419;48.880;18.036;2024-01-25T05:15:24;99326.41;;;7.52;53.70
72428;BME280;60419;48.880;18.036;2024-01-25T05:18:09;99322.19;;;7.26;53.91
72428;BME280;60419;48.880;18.036;2024-01-25T05:20:56;99319.25;;;7.27;54.05
72428;BME280;60419;48.880;18.036;2024-01-25T05:23:43;99327.09;;;7.19;55.16
72428;BME280;60419;48.880;18.036;2024-01-25T05:26:28;99315.22;;;7.25;55.50
72428;BME280;60419;48.880;18.036;2024-01-25T05:29:13;99317.22;;;7.04;56.17
72428;BME280;60419;48.880;18.036;2024-01-25T05:31:59;99322.94;;;7.42;54.70
72428;BME280;60419;48.880;18.036;2024-01-25T05:34:44;99325.06;;;7.50;55.15
72428;BME280;60419;48.880;18.036;2024-01-25T05:37:30;99334.28;;;7.28;55.00
72428;BME280;60419;48.880;18.036;2024-01-25T05:40:15;99330.16;;;7.51;54.83
72428;BME280;60419;48.880;18.036;2024-01-25T05:43:01;99321.94;;;7.27;55.44
72428;BME280;60419;48.880;18.036;2024-01-25T05:45:46;99325.19;;;7.24;55.26
72428;BME280;60419;48.880;18.036;2024-01-25T05:48:32;99324.59;;;7.32;54.78
72428;BME280;60419;48.880;18.036;2024-01-25T05:51:17;99328.41;;;7.26;55.27
72428;BME280;60419;48.880;18.036;2024-01-25T05:54:03;99321.22;;;7.11;54.44
72428;BME280;60419;48.880;18.036;2024-01-25T05:56:48;99325.75;;;7.16;54.95
72428;BME280;60419;48.880;18.036;2024-01-25T05:59:34;99325.81;;;9.06;57.74
72428;BME280;60419;48.880;18.036;2024-01-25T06:02:19;99299.78;;;7.90;52.82
72428;BME280;60419;48.880;18.036;2024-01-25T06:05:04;99312.91;;;7.58;53.93
72428;BME280;60419;48.880;18.036;2024-01-25T06:07:50;99304.47;;;7.25;54.12
72428;BME280;60419;48.880;18.036;2024-01-25T06:10:35;99310.13;;;7.73;53.85
72428;BME280;60419;48.880;18.036;2024-01-25T06:13:21;99318.66;;;7.36;53.99
72428;BME280;60419;48.880;18.036;2024-01-25T06:16:06;99305.00;;;7.27;53.93
72428;BME280;60419;48.880;18.036;2024-01-25T06:18:52;99309.28;;;7.28;54.42
72428;BME280;60419;48.880;18.036;2024-01-25T06:21:38;99303.63;;;7.35;54.54
72428;BME280;60419;48.880;18.036;2024-01-25T06:24:23;99302.41;;;7.11;55.65
72428;BME280;60419;48.880;18.036;2024-01-25T06:27:13;99303.81;;;6.94;55.70
72428;BME280;60419;48.880;18.036;2024-01-25T06:29:58;99295.97;;;7.02;55.34
72428;BME280;60419;48.880;18.036;2024-01-25T06:32:44;99293.50;;;7.21;55.21
72428;BME280;60419;48.880;18.036;2024-01-25T06:35:29;99292.81;;;6.95;55.38
72428;BME280;60419;48.880;18.036;2024-01-25T06:38:15;99294.34;;;7.11;55.63
72428;BME280;60419;48.880;18.036;2024-01-25T06:41:01;99305.72;;;6.93;55.14
72428;BME280;60419;48.880;18.036;2024-01-25T06:43:46;99295.91;;;7.18;53.79
72428;BME280;60419;48.880;18.036;2024-01-25T06:46:32;99313.13;;;7.17;53.35
72428;BME280;60419;48.880;18.036;2024-01-25T06:49:17;99300.41;;;7.32;54.21
72428;BME280;60419;48.880;18.036;2024-01-25T06:52:03;99303.59;;;7.45;52.81
72428;BME280;60419;48.880;18.036;2024-01-25T06:54:48;99304.00;;;7.13;53.55
72428;BME280;60419;48.880;18.036;2024-01-25T06:57:33;99306.72;;;7.57;52.46
72428;BME280;60419;48.880;18.036;2024-01-25T07:00:19;99291.00;;;7.35;52.42
72428;BME280;60419;48.880;18.036;2024-01-25T07:03:06;99311.88;;;7.53;50.89
72428;BME280;60419;48.880;18.036;2024-01-25T07:05:51;99297.66;;;7.87;51.00
72428;BME280;60419;48.880;18.036;2024-01-25T07:08:36;99311.75;;;7.74;50.57
72428;BME280;60419;48.880;18.036;2024-01-25T07:11:22;99326.66;;;7.51;50.64
72428;BME280;60419;48.880;18.036;2024-01-25T07:14:08;99324.31;;;7.34;50.91
72428;BME280;60419;48.880;18.036;2024-01-25T07:16:53;99341.16;;;7.55;50.12
72428;BME280;60419;48.880;18.036;2024-01-25T07:19:38;99344.19;;;7.38;50.96
72428;BME280;60419;48.880;18.036;2024-01-25T07:22:24;99329.16;;;7.82;50.38
72428;BME280;60419;48.880;18.036;2024-01-25T07:25:09;99347.13;;;7.37;49.90
72428;BME280;60419;48.880;18.036;2024-01-25T07:27:55;99337.47;;;7.36;50.40
72428;BME280;60419;48.880;18.036;2024-01-25T07:30:40;99321.63;;;7.39;50.37
72428;BME280;60419;48.880;18.036;2024-01-25T07:33:26;99336.72;;;7.25;50.96
72428;BME280;60419;48.880;18.036;2024-01-25T07:36:12;99338.09;;;7.22;50.27
72428;BME280;60419;48.880;18.036;2024-01-25T07:38:58;99335.56;;;7.46;49.44
72428;BME280;60419;48.880;18.036;2024-01-25T07:41:43;99338.31;;;7.26;49.24
72428;BME280;60419;48.880;18.036;2024-01-25T07:44:28;99328.13;;;7.23;49.62
72428;BME280;60419;48.880;18.036;2024-01-25T07:47:14;99337.16;;;7.52;49.35
72428;BME280;60419;48.880;18.036;2024-01-25T07:49:59;99332.38;;;7.34;49.05
72428;BME280;60419;48.880;18.036;2024-01-25T07:52:44;99338.53;;;7.45;49.25
72428;BME280;60419;48.880;18.036;2024-01-25T07:55:30;99351.91;;;7.55;49.44
72428;BME280;60419;48.880;18.036;2024-01-25T07:58:15;99333.31;;;8.03;47.80
72428;BME280;60419;48.880;18.036;2024-01-25T08:01:05;99345.00;;;8.17;48.42
72428;BME280;60419;48.880;18.036;2024-01-25T08:03:54;99338.09;;;7.72;47.81
72428;BME280;60419;48.880;18.036;2024-01-25T08:06:40;99332.88;;;7.46;49.36
72428;BME280;60419;48.880;18.036;2024-01-25T08:09:25;99303.44;;;7.16;49.09
72428;BME280;60419;48.880;18.036;2024-01-25T08:12:11;99314.03;;;7.51;48.72
72428;BME280;60419;48.880;18.036;2024-01-25T08:14:56;99309.53;;;7.81;48.26
72428;BME280;60419;48.880;18.036;2024-01-25T08:17:41;99299.63;;;7.76;47.88
72428;BME280;60419;48.880;18.036;2024-01-25T08:20:27;99326.53;;;7.22;48.99
72428;BME280;60419;48.880;18.036;2024-01-25T08:23:12;99328.91;;;7.28;48.47
72428;BME280;60419;48.880;18.036;2024-01-25T08:25:59;99328.03;;;7.48;48.66
72428;BME280;60419;48.880;18.036;2024-01-25T08:28:44;99330.84;;;7.18;49.73
72428;BME280;60419;48.880;18.036;2024-01-25T08:31:29;99308.31;;;7.14;48.80
72428;BME280;60419;48.880;18.036;2024-01-25T08:34:15;99319.28;;;7.22;48.98
72428;BME280;60419;48.880;18.036;2024-01-25T08:37:00;99321.97;;;7.22;49.56
72428;BME280;60419;48.880;18.036;2024-01-25T08:39:46;99342.91;;;7.25;48.64
72428;BME280;60419;48.880;18.036;2024-01-25T08:42:34;99310.63;;;7.30;48.87
72428;BME280;60419;48.880;18.036;2024-01-25T08:45:19;99339.66;;;7.28;48.08
72428;BME280;60419;48.880;18.036;2024-01-25T08:48:05;99313.47;;;7.54;47.94
72428;BME280;60419;48.880;18.036;2024-01-25T08:50:51;99317.81;;;7.50;46.79
72428;BME280;60419;48.880;18.036;2024-01-25T08:53:38;99320.78;;;7.39;46.92
72428;BME280;60419;48.880;18.036;2024-01-25T08:56:23;99324.16;;;7.65;46.72
72428;BME280;60419;48.880;18.036;2024-01-25T08:59:09;99317.47;;;7.57;47.26
72428;BME280;60419;48.880;18.036;2024-01-25T09:01:54;99327.53;;;7.41;47.60
72428;BME280;60419;48.880;18.036;2024-01-25T09:04:39;99325.72;;;7.76;46.71
72428;BME280;60419;48.880;18.036;2024-01-25T09:07:28;99325.31;;;7.53;47.27
72428;BME280;60419;48.880;18.036;2024-01-25T09:10:13;99311.41;;;7.36;46.80
72428;BME280;60419;48.880;18.036;2024-01-25T09:13:00;99311.16;;;7.32;47.91
72428;BME280;60419;48.880;18.036;2024-01-25T09:15:45;99341.41;;;7.59;47.43
72428;BME280;60419;48.880;18.036;2024-01-25T09:18:32;99337.25;;;7.82;47.39
72428;BME280;60419;48.880;18.036;2024-01-25T09:21:17;99343.75;;;7.70;46.85
72428;BME280;60419;48.880;18.036;2024-01-25T09:24:02;99337.72;;;7.44;47.64
72428;BME280;60419;48.880;18.036;2024-01-25T09:26:48;99344.91;;;7.59;47.81
72428;BME280;60419;48.880;18.036;2024-01-25T09:29:33;99359.69;;;7.62;46.90
72428;BME280;60419;48.880;18.036;2024-01-25T09:32:19;99362.72;;;7.45;47.34
72428;BME280;60419;48.880;18.036;2024-01-25T09:35:06;99370.56;;;7.81;47.49
72428;BME280;60419;48.880;18.036;2024-01-25T09:37:51;99359.88;;;7.70;47.02
72428;BME280;60419;48.880;18.036;2024-01-25T09:40:37;99367.59;;;7.87;47.27
72428;BME280;60419;48.880;18.036;2024-01-25T09:43:23;99372.28;;;7.66;47.42
72428;BME280;60419;48.880;18.036;2024-01-25T09:46:13;99350.66;;;7.42;47.34
72428;BME280;60419;48.880;18.036;2024-01-25T09:48:58;99334.38;;;7.63;47.50
72428;BME280;60419;48.880;18.036;2024-01-25T09:51:44;99334.69;;;7.61;47.44
72428;BME280;60419;48.880;18.036;2024-01-25T09:54:36;99358.69;;;7.92;47.09
72428;BME280;60419;48.880;18.036;2024-01-25T09:57:24;99359.88;;;7.70;47.93
72428;BME280;60419;48.880;18.036;2024-01-25T10:00:13;99349.63;;;7.77;46.44
72428;BME280;60419;48.880;18.036;2024-01-25T10:02:58;99362.44;;;7.46;47.91
72428;BME280;60419;48.880;18.036;2024-01-25T10:05:44;99359.09;;;7.70;48.06
72428;BME280;60419;48.880;18.036;2024-01-25T10:08:29;99365.19;;;7.81;47.61
72428;BME280;60419;48.880;18.036;2024-01-25T10:11:15;99369.28;;;7.73;48.06
72428;BME280;60419;48.880;18.036;2024-01-25T10:14:01;99379.09;;;7.93;47.37
72428;BME280;60419;48.880;18.036;2024-01-25T10:16:46;99377.91;;;7.70;47.61
72428;BME280;60419;48.880;18.036;2024-01-25T10:19:32;99382.22;;;8.10;47.05
72428;BME280;60419;48.880;18.036;2024-01-25T10:22:18;99373.88;;;8.41;46.42
72428;BME280;60419;48.880;18.036;2024-01-25T10:25:05;99374.84;;;8.55;46.13
72428;BME280;60419;48.880;18.036;2024-01-25T10:27:52;99373.13;;;8.01;46.56
72428;BME280;60419;48.880;18.036;2024-01-25T10:30:37;99401.03;;;8.15;46.81
72428;BME280;60419;48.880;18.036;2024-01-25T10:33:26;99382.72;;;7.73;47.86
72428;BME280;60419;48.880;18.036;2024-01-25T10:36:13;99413.53;;;7.91;47.39
72428;BME280;60419;48.880;18.036;2024-01-25T10:38:59;99402.81;;;8.25;46.53
72428;BME280;60419;48.880;18.036;2024-01-25T10:41:45;99356.53;;;8.28;46.10
72428;BME280;60419;48.880;18.036;2024-01-25T10:44:35;99396.75;;;8.09;46.05
72428;BME280;60419;48.880;18.036;2024-01-25T10:47:21;99406.41;;;7.71;47.44
72428;BME280;60419;48.880;18.036;2024-01-25T10:50:07;99398.53;;;7.85;47.29
72428;BME280;60419;48.880;18.036;2024-01-25T10:52:57;99434.72;;;7.58;47.09
72428;BME280;60419;48.880;18.036;2024-01-25T10:55:43;99433.16;;;7.91;47.32
72428;BME280;60419;48.880;18.036;2024-01-25T10:58:32;99399.81;;;8.32;46.35
72428;BME280;60419;48.880;18.036;2024-01-25T11:01:18;99395.38;;;8.46;46.40
72428;BME280;60419;48.880;18.036;2024-01-25T11:04:15;99391.50;;;7.89;46.35
72428;BME280;60419;48.880;18.036;2024-01-25T11:07:08;99428.00;;;8.05;47.09
72428;BME280;60419;48.880;18.036;2024-01-25T11:09:54;99387.75;;;7.90;46.95
72428;BME280;60419;48.880;18.036;2024-01-25T11:15:36;99413.34;;;8.22;46.44
72428;BME280;60419;48.880;18.036;2024-01-25T11:18:24;99416.03;;;8.22;46.39
72428;BME280;60419;48.880;18.036;2024-01-25T11:21:11;99422.91;;;7.98;46.71
72428;BME280;60419;48.880;18.036;2024-01-25T11:27:40;99401.53;;;7.73;47.13
72428;BME280;60419;48.880;18.036;2024-01-25T11:30:26;99409.72;;;8.02;46.66
72428;BME280;60419;48.880;18.036;2024-01-25T11:33:37;99423.50;;;8.30;46.54
72428;BME280;60419;48.880;18.036;2024-01-25T11:36:27;99318.50;;;7.17;47.42
72428;BME280;60419;48.880;18.036;2024-01-25T11:39:18;99353.03;;;7.44;48.07
72428;BME280;60419;48.880;18.036;2024-01-25T11:42:07;99407.28;;;7.56;48.42
72428;BME280;60419;48.880;18.036;2024-01-25T11:44:53;99415.03;;;7.63;47.99
72428;BME280;60419;48.880;18.036;2024-01-25T11:47:39;99384.63;;;7.67;47.25
72428;BME280;60419;48.880;18.036;2024-01-25T11:50:25;99411.56;;;7.62;47.46
72428;BME280;60419;48.880;18.036;2024-01-25T11:53:10;99439.84;;;7.99;47.43
72428;BME280;60419;48.880;18.036;2024-01-25T11:55:56;99436.34;;;8.04;46.68
72428;BME280;60419;48.880;18.036;2024-01-25T11:58:43;99430.66;;;7.61;47.08
72428;BME280;60419;48.880;18.036;2024-01-25T12:01:30;99415.69;;;7.89;46.90
72428;BME280;60419;48.880;18.036;2024-01-25T12:04:16;99428.09;;;8.29;46.56
72428;BME280;60419;48.880;18.036;2024-01-25T12:07:01;99419.41;;;8.03;46.54
72428;BME280;60419;48.880;18.036;2024-01-25T12:10:01;99418.81;;;8.06;45.97
72428;BME280;60419;48.880;18.036;2024-01-25T12:12:48;99422.09;;;7.53;47.44
72428;BME280;60419;48.880;18.036;2024-01-25T12:15:33;99421.41;;;7.82;46.43
72428;BME280;60419;48.880;18.036;2024-01-25T12:18:18;99421.31;;;7.97;46.49
72428;BME280;60419;48.880;18.036;2024-01-25T12:21:05;99419.50;;;7.88;45.72
72428;BME280;60419;48.880;18.036;2024-01-25T12:23:50;99397.03;;;8.08;45.63
72428;BME280;60419;48.880;18.036;2024-01-25T12:26:36;99420.81;;;7.90;46.03
72428;BME280;60419;48.880;18.036;2024-01-25T12:29:22;99418.38;;;7.94;46.11
72428;BME280;60419;48.880;18.036;2024-01-25T12:32:07;99412.28;;;7.78;46.19
72428;BME280;60419;48.880;18.036;2024-01-25T12:35:00;99425.44;;;7.80;46.36
72428;BME280;60419;48.880;18.036;2024-01-25T12:37:54;99433.50;;;7.85;45.67
72428;BME280;60419;48.880;18.036;2024-01-25T12:40:42;99437.84;;;7.75;45.58
72428;BME280;60419;48.880;18.036;2024-01-25T12:43:28;99401.16;;;7.95;45.44
72428;BME280;60419;48.880;18.036;2024-01-25T12:46:13;99427.66;;;7.67;46.04
72428;BME280;60419;48.880;18.036;2024-01-25T12:48:59;99418.06;;;8.01;45.42
72428;BME280;60419;48.880;18.036;2024-01-25T12:51:44;99413.22;;;8.37;45.27
72428;BME280;60419;48.880;18.036;2024-01-25T12:54:30;99422.56;;;7.71;46.33
72428;BME280;60419;48.880;18.036;2024-01-25T12:57:15;99423.19;;;7.52;46.99
72428;BME280;60419;48.880;18.036;2024-01-25T13:00:01;99421.63;;;7.91;46.04
72428;BME280;60419;48.880;18.036;2024-01-25T13:02:46;99411.50;;;8.17;46.03
72428;BME280;60419;48.880;18.036;2024-01-25T13:05:31;99420.41;;;8.12;45.57
72428;BME280;60419;48.880;18.036;2024-01-25T13:08:19;99420.38;;;7.73;46.83
72428;BME280;60419;48.880;18.036;2024-01-25T13:11:04;99420.53;;;7.97;45.99
72428;BME280;60419;48.880;18.036;2024-01-25T13:13:50;99426.19;;;7.90;46.09
72428;BME280;60419;48.880;18.036;2024-01-25T13:16:36;99392.63;;;7.83;46.28
72428;BME280;60419;48.880;18.036;2024-01-25T13:19:21;99406.44;;;7.66;46.45
72428;BME280;60419;48.880;18.036;2024-01-25T13:22:08;99417.34;;;7.85;46.65
72428;BME280;60419;48.880;18.036;2024-01-25T13:24:53;99414.97;;;7.78;46.16
72428;BME280;60419;48.880;18.036;2024-01-25T13:27:38;99418.88;;;7.51;47.70
72428;BME280;60419;48.880;18.036;2024-01-25T13:30:24;99406.00;;;7.43;47.40
72428;BME280;60419;48.880;18.036;2024-01-25T13:33:09;99422.56;;;7.66;47.13
72428;BME280;60419;48.880;18.036;2024-01-25T13:35:54;99372.81;;;7.08;47.55
72428;BME280;60419;48.880;18.036;2024-01-25T13:38:40;99414.25;;;7.62;47.32
72428;BME280;60419;48.880;18.036;2024-01-25T13:41:26;99428.41;;;7.78;47.51
72428;BME280;60419;48.880;18.036;2024-01-25T13:44:13;99409.50;;;7.44;47.94
72428;BME280;60419;48.880;18.036;2024-01-25T13:46:59;99406.81;;;7.44;47.82
72428;BME280;60419;48.880;18.036;2024-01-25T13:49:44;99428.31;;;7.33;48.17
72428;BME280;60419;48.880;18.036;2024-01-25T13:52:30;99429.03;;;7.60;47.99
72428;BME280;60419;48.880;18.036;2024-01-25T13:55:15;99417.81;;;7.52;47.56
72428;BME280;60419;48.880;18.036;2024-01-25T13:58:00;99411.13;;;7.45;47.84
72428;BME280;60419;48.880;18.036;2024-01-25T14:00:46;99430.97;;;7.49;48.65
72428;BME280;60419;48.880;18.036;2024-01-25T14:03:31;99445.19;;;7.54;48.22
72428;BME280;60419;48.880;18.036;2024-01-25T14:06:17;99448.16;;;7.58;47.89
72428;BME280;60419;48.880;18.036;2024-01-25T14:09:02;99443.63;;;7.43;47.66
72428;BME280;60419;48.880;18.036;2024-01-25T14:11:48;99459.81;;;8.67;48.94
72428;BME280;60419;48.880;18.036;2024-01-25T14:14:33;99412.50;;;7.87;46.83
72428;BME280;60419;48.880;18.036;2024-01-25T14:17:18;99449.66;;;7.80;47.29
72428;BME280;60419;48.880;18.036;2024-01-25T14:20:04;99452.88;;;7.82;47.40
72428;BME280;60419;48.880;18.036;2024-01-25T14:22:50;99457.13;;;7.88;47.54
72428;BME280;60419;48.880;18.036;2024-01-25T14:25:35;99451.19;;;7.91;46.91
72428;BME280;60419;48.880;18.036;2024-01-25T14:28:21;99454.97;;;7.90;47.26
72428;BME280;60419;48.880;18.036;2024-01-25T14:31:06;99457.31;;;7.52;47.80
72428;BME280;60419;48.880;18.036;2024-01-25T14:33:51;99464.00;;;7.60;47.59
72428;BME280;60419;48.880;18.036;2024-01-25T14:36:37;99453.22;;;7.60;47.97
72428;BME280;60419;48.880;18.036;2024-01-25T14:39:22;99449.88;;;7.88;47.71
72428;BME280;60419;48.880;18.036;2024-01-25T14:42:11;99444.44;;;7.98;47.43
72428;BME280;60419;48.880;18.036;2024-01-25T14:44:56;99455.50;;;7.97;47.29